createdAt,value
2019-02-14T00:00:43.834Z,99.90
2019-02-14T00:03:15.311Z,99.90
2019-02-14T00:05:46.624Z,99.90
2019-02-14T00:08:24.387Z,99.90
2019-02-14T00:11:02.239Z,99.90
2019-02-14T00:13:32.947Z,99.90
2019-02-14T00:16:16.870Z,99.90
2019-02-14T00:18:47.984Z,99.90
2019-02-14T00:21:19.119Z,99.90
2019-02-14T00:23:50.122Z,99.90
2019-02-14T00:26:21.185Z,99.90
2019-02-14T00:28:52.417Z,99.90
2019-02-14T00:31:43.154Z,99.90
2019-02-14T00:34:21.557Z,99.90
2019-02-14T00:36:52.666Z,99.90
2019-02-14T00:39:34.802Z,99.90
2019-02-14T00:42:05.998Z,99.90
2019-02-14T00:44:37.589Z,99.90
2019-02-14T00:47:10.653Z,99.90
2019-02-14T00:49:42.501Z,99.90
2019-02-14T00:52:13.870Z,99.90
2019-02-14T00:54:44.909Z,99.90
2019-02-14T00:57:16.055Z,99.90
2019-02-14T00:59:47.423Z,99.90
2019-02-14T01:02:18.490Z,99.90
2019-02-14T01:04:50.180Z,99.90
2019-02-14T01:07:24.822Z,99.90
2019-02-14T01:09:56.178Z,99.90
2019-02-14T01:12:27.608Z,99.90
2019-02-14T01:14:58.608Z,99.90
2019-02-14T01:17:29.729Z,99.90
2019-02-14T01:20:01.026Z,99.90
2019-02-14T01:22:32.136Z,99.90
2019-02-14T01:28:02.120Z,99.90
2019-02-14T01:30:33.254Z,99.90
2019-02-14T01:33:04.364Z,99.90
2019-02-14T01:35:41.851Z,99.90
2019-02-14T01:38:08.085Z,99.90
2019-02-14T01:40:39.235Z,99.90
2019-02-14T01:43:10.468Z,99.90
2019-02-14T01:45:41.519Z,99.90
2019-02-14T01:48:20.631Z,99.90
2019-02-14T01:50:51.758Z,99.90
2019-02-14T01:53:22.412Z,99.90
2019-02-14T01:55:53.633Z,99.90
2019-02-14T01:58:24.675Z,99.90
2019-02-14T02:00:55.808Z,99.90
2019-02-14T02:03:26.886Z,99.90
2019-02-14T02:05:57.989Z,99.90
2019-02-14T02:08:28.974Z,99.90
2019-02-14T02:11:00.419Z,99.90
2019-02-14T02:13:31.882Z,99.90
2019-02-14T02:16:02.988Z,99.90
2019-02-14T02:18:34.338Z,99.90
2019-02-14T02:21:05.433Z,99.90
2019-02-14T02:23:36.580Z,99.90
2019-02-14T02:26:07.585Z,99.90
2019-02-14T02:28:38.666Z,99.90
2019-02-14T02:31:09.514Z,99.90
2019-02-14T02:33:40.588Z,99.90
2019-02-14T02:36:11.802Z,99.90
2019-02-14T02:38:42.974Z,99.90
2019-02-14T02:41:14.428Z,99.90
2019-02-14T02:43:45.481Z,99.90
2019-02-14T02:46:16.540Z,99.90
2019-02-14T02:48:48.669Z,99.90
2019-02-14T02:51:19.601Z,99.90
2019-02-14T02:53:50.773Z,99.90
2019-02-14T02:56:21.818Z,99.90
2019-02-14T02:58:52.850Z,99.90
2019-02-14T03:01:23.488Z,99.90
2019-02-14T03:03:54.529Z,99.90
2019-02-14T03:06:25.163Z,99.90
2019-02-14T03:08:56.267Z,99.90
2019-02-14T03:11:29.241Z,99.90
2019-02-14T03:14:00.305Z,99.90
2019-02-14T03:16:31.381Z,99.90
2019-02-14T03:19:02.377Z,99.90
2019-02-14T03:21:33.452Z,99.90
2019-02-14T03:24:04.640Z,99.90
2019-02-14T03:26:35.932Z,99.90
2019-02-14T03:29:06.979Z,99.90
2019-02-14T03:31:38.037Z,99.90
2019-02-14T03:34:09.344Z,99.90
2019-02-14T03:36:40.405Z,99.90
2019-02-14T03:39:11.446Z,99.90
2019-02-14T03:41:42.625Z,99.90
2019-02-14T03:44:13.630Z,99.90
2019-02-14T03:46:44.670Z,99.90
2019-02-14T03:49:15.975Z,99.90
2019-02-14T03:51:47.003Z,99.90
2019-02-14T03:54:17.636Z,99.90
2019-02-14T03:56:48.593Z,99.90
2019-02-14T03:59:19.208Z,99.90
2019-02-14T04:01:50.169Z,99.90
2019-02-14T04:04:24.823Z,99.90
2019-02-14T04:06:55.889Z,99.90
2019-02-14T04:09:26.883Z,99.90
2019-02-14T04:11:57.731Z,99.90
2019-02-14T04:14:28.739Z,99.90
2019-02-14T04:17:03.972Z,99.90
2019-02-14T04:19:34.909Z,99.90
2019-02-14T04:22:06.047Z,99.90
2019-02-14T04:24:37.131Z,99.90
2019-02-14T04:27:07.994Z,99.90
2019-02-14T04:29:39.047Z,99.90
2019-02-14T04:32:10.935Z,99.90
2019-02-14T04:34:42.036Z,99.90
2019-02-14T04:37:13.366Z,99.90
2019-02-14T04:39:44.511Z,99.90
2019-02-14T04:42:15.758Z,99.90
2019-02-14T04:44:46.802Z,99.90
2019-02-14T04:47:18.911Z,99.90
2019-02-14T04:49:49.781Z,99.90
2019-02-14T04:52:20.771Z,99.90
2019-02-14T04:54:52.672Z,99.90
2019-02-14T04:57:23.812Z,99.90
2019-02-14T04:59:54.634Z,99.90
2019-02-14T05:02:25.281Z,99.90
2019-02-14T05:04:56.221Z,99.90
2019-02-14T05:07:27.160Z,99.90
2019-02-14T05:09:58.224Z,99.90
2019-02-14T05:12:29.355Z,99.90
2019-02-14T05:15:00.366Z,99.90
2019-02-14T05:17:31.685Z,99.90
2019-02-14T05:20:02.639Z,99.90
2019-02-14T05:22:33.719Z,99.90
2019-02-14T05:25:04.638Z,99.90
2019-02-14T05:27:35.578Z,99.90
2019-02-14T05:30:07.065Z,99.90
2019-02-14T05:32:38.549Z,99.90
2019-02-14T05:35:10.777Z,99.90
2019-02-14T05:37:44.729Z,99.90
2019-02-14T05:40:16.210Z,99.90
2019-02-14T05:42:47.409Z,99.90
2019-02-14T05:45:18.156Z,99.90
2019-02-14T05:47:49.658Z,99.90
2019-02-14T05:50:21.740Z,99.90
2019-02-14T05:52:53.390Z,99.90
2019-02-14T05:55:24.129Z,99.90
2019-02-14T05:57:55.021Z,99.90
2019-02-14T06:00:26.023Z,99.90
2019-02-14T06:02:57.453Z,99.90
2019-02-14T06:05:28.595Z,99.90
2019-02-14T06:07:59.625Z,99.90
2019-02-14T06:10:30.650Z,99.90
2019-02-14T06:13:01.709Z,99.90
2019-02-14T06:15:32.827Z,99.90
2019-02-14T06:18:03.881Z,99.90
2019-02-14T06:20:35.372Z,99.90
2019-02-14T06:23:06.525Z,99.90
2019-02-14T06:25:37.748Z,99.90
2019-02-14T06:28:08.807Z,99.90
2019-02-14T06:30:39.963Z,99.90
2019-02-14T06:33:10.903Z,99.90
2019-02-14T06:35:41.868Z,99.90
2019-02-14T06:38:13.041Z,99.90
2019-02-14T06:40:44.261Z,99.90
2019-02-14T06:43:16.742Z,99.90
2019-02-14T06:45:47.991Z,99.90
2019-02-14T06:48:19.187Z,99.90
2019-02-14T06:50:52.119Z,99.90
2019-02-14T06:53:23.099Z,99.90
2019-02-14T06:55:54.233Z,99.90
2019-02-14T06:58:24.935Z,99.90
2019-02-14T07:00:57.953Z,99.90
2019-02-14T07:03:28.921Z,99.90
2019-02-14T07:05:59.984Z,99.90
2019-02-14T07:08:31.217Z,99.90
2019-02-14T07:11:02.424Z,99.90
2019-02-14T07:13:33.474Z,99.90
2019-02-14T07:16:04.387Z,99.90
2019-02-14T07:18:36.627Z,99.90
2019-02-14T07:21:07.680Z,99.90
2019-02-14T07:23:39.037Z,99.90
2019-02-14T07:26:10.013Z,99.90
2019-02-14T07:28:43.932Z,99.90
2019-02-14T07:31:15.945Z,99.90
2019-02-14T07:33:50.180Z,99.90
2019-02-14T07:36:21.011Z,99.90
2019-02-14T07:38:52.363Z,99.90
2019-02-14T07:41:22.990Z,99.90
2019-02-14T07:43:58.220Z,99.90
2019-02-14T07:46:28.950Z,99.90
2019-02-14T07:48:59.938Z,99.90
2019-02-14T07:51:31.362Z,99.90
2019-02-14T07:54:02.529Z,99.90
2019-02-14T07:56:33.513Z,99.90
2019-02-14T07:59:05.968Z,99.90
2019-02-14T08:01:37.371Z,99.90
2019-02-14T08:04:09.030Z,99.90
2019-02-14T08:06:40.157Z,99.90
2019-02-14T08:09:11.576Z,99.90
2019-02-14T08:11:42.896Z,99.90
2019-02-14T08:14:14.352Z,99.90
2019-02-14T08:16:45.520Z,99.90
2019-02-14T08:19:16.835Z,99.90
2019-02-14T08:21:47.811Z,99.90
2019-02-14T08:24:19.363Z,99.90
2019-02-14T08:26:50.428Z,99.90
2019-02-14T08:29:21.103Z,99.90
2019-02-14T08:31:52.176Z,99.90
2019-02-14T08:34:22.878Z,99.90
2019-02-14T08:36:53.894Z,99.90
2019-02-14T08:39:24.516Z,99.90
2019-02-14T08:41:55.713Z,99.90
2019-02-14T08:44:26.685Z,99.90
2019-02-14T08:46:57.942Z,99.90
2019-02-14T08:49:29.119Z,99.90
2019-02-14T08:52:00.132Z,99.90
2019-02-14T08:54:31.313Z,99.90
2019-02-14T08:57:02.482Z,99.90
2019-02-14T08:59:33.631Z,99.90
2019-02-14T09:02:04.728Z,99.90
2019-02-14T09:04:35.780Z,99.90
2019-02-14T09:07:06.871Z,99.90
2019-02-14T09:09:37.846Z,99.90
2019-02-14T09:12:09.167Z,99.90
2019-02-14T09:14:40.636Z,99.90
2019-02-14T09:17:11.828Z,99.90
2019-02-14T09:19:43.048Z,99.90
2019-02-14T09:22:14.078Z,99.90
2019-02-14T09:24:45.330Z,99.90
2019-02-14T09:27:16.234Z,99.90
2019-02-14T09:29:47.463Z,99.90
2019-02-14T09:32:22.269Z,99.90
2019-02-14T09:34:53.447Z,99.90
2019-02-14T09:37:24.378Z,99.90
2019-02-14T09:39:55.642Z,99.90
2019-02-14T09:42:26.345Z,99.90
2019-02-14T09:44:57.538Z,99.90
2019-02-14T09:47:28.442Z,99.90
2019-02-14T09:49:59.777Z,99.90
2019-02-14T09:52:31.025Z,99.90
2019-02-14T09:55:02.277Z,99.90
2019-02-14T09:57:54.726Z,99.90
2019-02-14T10:00:25.509Z,99.90
2019-02-14T10:02:56.602Z,99.90
2019-02-14T10:05:27.634Z,99.90
2019-02-14T10:07:58.814Z,99.90
2019-02-14T10:10:29.936Z,99.90
2019-02-14T10:13:00.897Z,99.90
2019-02-14T10:15:32.147Z,99.90
2019-02-14T10:18:03.202Z,99.90
2019-02-14T10:20:34.256Z,99.90
2019-02-14T10:23:05.232Z,99.90
2019-02-14T10:25:36.339Z,99.90
2019-02-14T10:28:07.544Z,99.90
2019-02-14T10:30:40.182Z,99.90
2019-02-14T10:33:11.404Z,99.90
2019-02-14T10:35:42.483Z,99.90
2019-02-14T10:38:22.102Z,99.90
2019-02-14T10:40:47.533Z,99.90
2019-02-14T10:43:18.543Z,99.90
2019-02-14T10:45:49.968Z,99.90
2019-02-14T10:48:21.373Z,99.90
2019-02-14T10:50:52.618Z,99.90
2019-02-14T10:53:23.444Z,99.90
2019-02-14T10:55:54.488Z,99.90
2019-02-14T10:58:25.111Z,99.90
2019-02-14T11:00:56.241Z,99.90
2019-02-14T11:03:27.173Z,99.90
2019-02-14T11:05:58.131Z,99.90
2019-02-14T11:08:31.641Z,99.90
2019-02-14T11:11:08.703Z,99.90
2019-02-14T11:13:41.357Z,99.90
2019-02-14T11:16:12.438Z,99.90
2019-02-14T11:18:44.600Z,99.90
2019-02-14T11:21:15.947Z,99.90
2019-02-14T11:23:47.188Z,99.90
2019-02-14T11:26:18.483Z,99.90
2019-02-14T11:28:49.667Z,99.90
2019-02-14T11:31:20.524Z,99.90
2019-02-14T11:33:51.671Z,99.90
2019-02-14T11:36:22.445Z,99.90
2019-02-14T11:38:54.333Z,99.90
2019-02-14T11:41:25.279Z,99.90
2019-02-14T11:43:57.542Z,99.90
2019-02-14T11:46:28.283Z,99.90
2019-02-14T11:48:59.451Z,99.90
2019-02-14T11:51:30.490Z,99.90
2019-02-14T11:54:01.531Z,99.90
2019-02-14T11:56:32.973Z,99.90
2019-02-14T11:59:04.203Z,99.90
2019-02-14T12:01:35.885Z,99.90
2019-02-14T12:04:06.944Z,99.90
2019-02-14T12:10:13.240Z,99.90
2019-02-14T12:12:38.625Z,99.90
2019-02-14T12:15:09.865Z,99.90
2019-02-14T12:17:40.957Z,99.90
2019-02-14T12:20:12.803Z,99.90
2019-02-14T12:22:46.875Z,99.90
2019-02-14T12:25:16.835Z,99.90
2019-02-14T12:27:47.970Z,99.90
2019-02-14T12:30:19.079Z,99.90
2019-02-14T12:32:50.224Z,99.90
2019-02-14T12:35:25.695Z,99.90
2019-02-14T12:37:56.733Z,99.70
2019-02-14T12:40:27.342Z,99.70
2019-02-14T12:42:58.390Z,99.40
2019-02-14T12:45:29.773Z,99.60
2019-02-14T12:48:00.776Z,99.90
2019-02-14T12:50:31.857Z,99.90
2019-02-14T12:53:03.029Z,99.90
2019-02-14T12:55:36.816Z,99.90
2019-02-14T12:58:07.935Z,99.90
2019-02-14T13:00:39.164Z,99.90
2019-02-14T13:03:10.315Z,99.90
2019-02-14T13:05:41.763Z,99.90
2019-02-14T13:08:12.845Z,99.50
2019-02-14T13:10:44.125Z,99.00
2019-02-14T13:13:15.280Z,99.20
2019-02-14T13:15:46.304Z,99.90
2019-02-14T13:18:17.741Z,99.90
2019-02-14T13:20:48.952Z,99.90
2019-02-14T13:23:19.834Z,99.90
2019-02-14T13:25:51.030Z,99.90
2019-02-14T13:28:22.132Z,99.90
2019-02-14T13:30:53.274Z,99.90
2019-02-14T13:33:24.717Z,99.90
2019-02-14T13:35:55.495Z,99.90
2019-02-14T13:38:26.152Z,99.70
2019-02-14T13:40:57.550Z,99.00
2019-02-14T13:43:28.230Z,98.30
2019-02-14T13:45:59.310Z,96.30
2019-02-14T13:48:31.412Z,95.10
2019-02-14T13:51:02.388Z,91.30
2019-02-14T13:57:00.116Z,89.90
2019-02-14T13:59:32.163Z,87.90
2019-02-14T14:02:03.320Z,84.30
2019-02-14T14:04:34.768Z,88.40
2019-02-14T14:07:06.104Z,87.70
2019-02-14T14:09:38.984Z,86.40
2019-02-14T14:12:10.187Z,83.50
2019-02-14T14:14:41.585Z,81.50
2019-02-14T14:17:12.768Z,86.10
2019-02-14T14:19:43.912Z,80.00
2019-02-14T14:22:15.100Z,79.50
2019-02-14T14:24:46.198Z,82.80
2019-02-14T14:27:17.663Z,83.80
2019-02-14T14:29:48.755Z,85.80
2019-02-14T14:32:19.881Z,88.70
2019-02-14T14:34:51.122Z,87.10
2019-02-14T14:37:22.311Z,85.80
2019-02-14T14:39:54.317Z,82.10
2019-02-14T14:42:53.529Z,84.40
2019-02-14T14:45:37.014Z,85.20
2019-02-14T14:48:18.959Z,85.50
2019-02-14T14:50:42.617Z,87.10
2019-02-14T14:53:13.881Z,89.00
2019-02-14T14:55:46.465Z,89.60
2019-02-14T14:58:17.832Z,90.00
2019-02-14T15:00:49.201Z,90.50
2019-02-14T15:03:20.155Z,91.00
2019-02-14T15:05:51.361Z,89.20
2019-02-14T15:08:22.958Z,90.60
2019-02-14T15:10:54.045Z,89.20
2019-02-14T15:13:25.216Z,90.70
2019-02-14T15:15:56.326Z,92.00
2019-02-14T15:18:27.023Z,92.70
2019-02-14T15:20:57.982Z,93.20
2019-02-14T15:23:28.686Z,94.20
2019-02-14T15:25:59.946Z,94.90
2019-02-14T15:28:30.971Z,95.00
2019-02-14T15:31:02.192Z,95.00
2019-02-14T15:33:33.421Z,94.70
2019-02-14T15:36:04.540Z,94.90
2019-02-14T15:38:37.028Z,94.70
2019-02-14T15:41:08.272Z,94.50
2019-02-14T15:43:39.522Z,94.50
2019-02-14T15:46:10.670Z,95.20
2019-02-14T15:48:41.908Z,94.90
2019-02-14T15:51:13.078Z,95.10
2019-02-14T15:56:56.630Z,95.00
2019-02-14T15:59:28.846Z,95.50
2019-02-14T16:02:00.287Z,95.70
2019-02-14T16:04:31.425Z,96.90
2019-02-14T16:07:02.534Z,97.40
2019-02-14T16:09:33.696Z,97.00
2019-02-14T16:12:04.832Z,97.60
2019-02-14T16:14:35.977Z,97.90
2019-02-14T16:17:11.217Z,98.40
2019-02-14T16:19:40.063Z,99.00
2019-02-14T16:22:11.160Z,99.30
2019-02-14T16:24:49.244Z,99.30
2019-02-14T16:27:20.366Z,99.90
2019-02-14T16:29:51.673Z,99.90
2019-02-14T16:32:22.808Z,99.90
2019-02-14T16:34:54.195Z,99.90
2019-02-14T16:37:25.057Z,99.90
2019-02-14T16:39:58.488Z,99.90
2019-02-14T16:42:30.823Z,99.90
2019-02-14T16:45:02.121Z,99.90
2019-02-14T16:47:33.375Z,99.90
2019-02-14T16:50:04.849Z,99.90
2019-02-14T16:52:36.301Z,99.90
2019-02-14T16:55:07.943Z,99.90
2019-02-14T16:57:39.014Z,99.90
2019-02-14T17:00:11.785Z,99.90
2019-02-14T17:02:44.177Z,99.90
2019-02-14T17:05:15.632Z,99.90
2019-02-14T17:07:46.948Z,99.90
2019-02-14T17:10:18.556Z,99.90
2019-02-14T17:12:51.692Z,99.90
2019-02-14T17:15:22.837Z,99.90
2019-02-14T17:17:56.261Z,99.90
2019-02-14T17:20:27.605Z,99.90
2019-02-14T17:22:58.742Z,99.90
2019-02-14T17:25:31.628Z,99.90
2019-02-14T17:28:04.574Z,99.90
2019-02-14T17:30:35.573Z,99.90
2019-02-14T17:33:06.750Z,99.90
2019-02-14T17:35:37.867Z,99.90
2019-02-14T17:38:09.088Z,99.90
2019-02-14T17:40:45.877Z,99.90
2019-02-14T17:43:12.876Z,99.90
2019-02-14T17:45:44.273Z,99.90
2019-02-14T17:48:15.576Z,99.90
2019-02-14T17:50:46.742Z,99.90
2019-02-14T17:53:17.924Z,99.90
2019-02-14T17:55:49.271Z,99.90
2019-02-14T17:58:20.211Z,99.90
2019-02-14T18:00:51.876Z,99.90
2019-02-14T18:03:23.091Z,99.90
2019-02-14T18:05:54.480Z,99.90
2019-02-14T18:08:25.305Z,99.90
2019-02-14T18:14:21.226Z,99.90
2019-02-14T18:16:52.412Z,99.90
2019-02-14T18:19:23.216Z,99.90
2019-02-14T18:21:56.004Z,99.90
2019-02-14T18:24:28.224Z,99.90
2019-02-14T18:27:01.241Z,99.90
2019-02-14T18:29:33.377Z,99.90
2019-02-14T18:32:07.474Z,99.90
2019-02-14T18:34:42.427Z,99.90
2019-02-14T18:37:15.347Z,99.90
2019-02-14T18:39:48.812Z,99.90
2019-02-14T18:42:20.485Z,99.90
2019-02-14T18:44:51.574Z,99.90
2019-02-14T18:47:22.758Z,99.90
2019-02-14T18:50:05.712Z,99.90
2019-02-14T18:52:36.981Z,99.90
2019-02-14T18:55:11.495Z,99.90
2019-02-14T18:57:43.545Z,99.90
2019-02-14T19:00:15.492Z,99.90
2019-02-14T19:02:46.708Z,99.90
2019-02-14T19:05:17.508Z,99.90
2019-02-14T19:07:48.708Z,99.90
2019-02-14T19:10:20.831Z,99.90
2019-02-14T19:12:51.979Z,99.90
2019-02-14T19:15:23.215Z,99.90
2019-02-14T19:17:54.266Z,99.90
2019-02-14T19:20:24.942Z,99.90
2019-02-14T19:22:55.935Z,99.90
2019-02-14T19:25:29.417Z,99.90
2019-02-14T19:27:59.695Z,99.90
2019-02-14T19:30:30.915Z,99.90
2019-02-14T19:33:02.022Z,99.90
2019-02-14T19:35:32.995Z,99.90
2019-02-14T19:38:04.136Z,99.90
2019-02-14T19:40:35.179Z,99.90
2019-02-14T19:43:06.312Z,99.90
2019-02-14T19:45:37.460Z,99.90
2019-02-14T19:48:08.620Z,99.90
2019-02-14T19:50:39.602Z,99.90
2019-02-14T19:53:10.693Z,99.90
2019-02-14T19:55:41.853Z,99.90
2019-02-14T19:58:12.895Z,99.90
2019-02-14T20:00:44.121Z,99.90
2019-02-14T20:03:15.151Z,99.90
2019-02-14T20:05:46.454Z,99.90
2019-02-14T20:08:17.714Z,99.90
2019-02-14T20:10:48.733Z,99.90
2019-02-14T20:13:20.012Z,99.90
2019-02-14T20:15:51.399Z,99.90
2019-02-14T20:18:22.265Z,99.90
2019-02-14T20:20:53.326Z,99.90
2019-02-14T20:23:24.282Z,99.90
2019-02-14T20:25:55.350Z,99.90
2019-02-14T20:28:26.088Z,99.90
2019-02-14T20:30:57.304Z,99.90
2019-02-14T20:33:29.100Z,99.90
2019-02-14T20:36:00.088Z,99.90
2019-02-14T20:38:32.060Z,99.90
2019-02-14T20:41:03.169Z,99.90
2019-02-14T20:43:34.459Z,99.90
2019-02-14T20:46:05.539Z,99.90
2019-02-14T20:48:36.652Z,99.90
2019-02-14T20:51:07.965Z,99.90
2019-02-14T20:53:39.068Z,99.90
2019-02-14T20:56:10.487Z,99.90
2019-02-14T20:58:41.524Z,99.90
2019-02-14T21:01:13.638Z,99.90
2019-02-14T21:03:44.905Z,99.90
2019-02-14T21:06:16.150Z,99.90
2019-02-14T21:08:47.519Z,99.90
2019-02-14T21:11:18.650Z,99.90
2019-02-14T21:13:50.428Z,99.90
2019-02-14T21:16:21.638Z,99.90
2019-02-14T21:18:52.803Z,99.90
2019-02-14T21:21:26.152Z,99.90
2019-02-14T21:23:57.338Z,99.90
2019-02-14T21:26:28.766Z,99.90
2019-02-14T21:29:00.635Z,99.90
2019-02-14T21:31:31.967Z,99.90
2019-02-14T21:34:03.199Z,99.90
2019-02-14T21:36:34.341Z,99.90
2019-02-14T21:39:07.149Z,99.90
2019-02-14T21:41:45.049Z,99.90
2019-02-14T21:44:17.964Z,99.90
2019-02-14T21:46:49.383Z,99.90
2019-02-14T21:49:21.036Z,99.90
2019-02-14T21:51:52.182Z,99.90
2019-02-14T21:54:22.934Z,99.90
2019-02-14T21:56:54.077Z,99.90
2019-02-14T21:59:25.230Z,99.90
2019-02-14T22:05:26.279Z,99.90
2019-02-14T22:07:57.225Z,99.90
2019-02-14T22:13:55.430Z,99.90
2019-02-14T22:16:26.163Z,99.90
2019-02-14T22:18:57.376Z,99.90
2019-02-14T22:21:28.480Z,99.90
2019-02-14T22:23:59.509Z,99.90
2019-02-14T22:26:30.563Z,99.90
2019-02-14T22:29:01.625Z,99.90
2019-02-14T22:31:32.678Z,99.90
2019-02-14T22:34:03.788Z,99.90
2019-02-14T22:36:34.864Z,99.90
2019-02-14T22:39:06.851Z,99.90
2019-02-14T22:41:39.447Z,99.90
2019-02-14T22:44:10.571Z,99.90
2019-02-14T22:46:41.735Z,99.90
2019-02-14T22:49:13.809Z,99.90
2019-02-14T22:51:45.043Z,99.90
2019-02-14T22:57:28.451Z,99.90
2019-02-14T22:59:59.329Z,99.90
2019-02-14T23:02:30.000Z,99.90
2019-02-14T23:05:02.157Z,99.90
2019-02-14T23:07:33.252Z,99.90
2019-02-14T23:10:04.561Z,99.90
2019-02-14T23:12:35.753Z,99.90
2019-02-14T23:15:07.096Z,99.90
2019-02-14T23:17:38.986Z,99.90
2019-02-14T23:20:10.190Z,99.90
2019-02-14T23:22:41.583Z,99.90
2019-02-14T23:25:12.759Z,99.90
2019-02-14T23:27:44.196Z,99.90
2019-02-14T23:30:15.534Z,99.90
2019-02-14T23:32:46.802Z,99.90
2019-02-14T23:35:17.739Z,99.90
2019-02-14T23:37:48.847Z,99.90
2019-02-14T23:40:19.833Z,99.90
2019-02-14T23:42:50.935Z,99.90
2019-02-14T23:45:21.935Z,99.90
2019-02-14T23:47:56.821Z,99.90
2019-02-14T23:50:27.506Z,99.90
2019-02-14T23:52:58.642Z,99.90
2019-02-14T23:55:29.725Z,99.90
2019-02-14T23:58:00.830Z,99.90
